Capitol Logistics 943

Operating for DHL



LJLJ
Ljubljana Jože Pu?nik Airport
Ljubljana, SI
EDDK
Cologne Bonn Airport
Cologne, DE

Activity Log

Date Flight Route Aircraft Duration
No Flights Yet

Route Details

Aircraft Information
Group: European Fleet
Types: A30F,A31F,B738
Route Data
Demand: L
Distance: 403nm
Duration: 1h 44m
Recm'd Route: GIMI1Z GIMIX ERKIR L608 KOVAN T844 ASKIK T840 GULKO GULK24
Origin Wx: LJLJ 270600Z 24003KT 210V300 9999 FEW060 18/14 Q1021 NOSIG
Dest. Wx: EDDK 270550Z AUTO 27014KT 6000 -DZ OVC011 13/12 Q1020 TEMPO 3500 RADZ BKN009
Notes:

Financial History
Total Freight: 0lbs
Average Load: 0lbs/flt
Fuel Used: 0lbs
Avg. Fuel Used: 0lbs/flt
Fuel Expense: $0
Avg. Fuel Expense: $0
Avg. Fuel Cost: $0/lbs
Total Gross Income: $0
Pilot Pay: $0
Total Expenses: $0
Total Revenue: $0
Average Revenue: $0